Time;durP1;ratioP1;P1;durP2;ratioP2;P2;SDS_P1;SDS_P2;PMS_P1;PMS_P2;Temp;Humidity;BMP_temperature;BMP_pressure;BME280_temperature;BME280_humidity;BME280_pressure;Samples;Min_cycle;Max_cycle;Signal;HPM_P1;HPM_P2
2024/01/22 00:01:40;;;;;;;9.88;4.63;;;;;;;7.39;100.00;100863.22;5051126;28;20031;-87
2024/01/22 00:04:07;;;;;;;7.70;4.80;;;;;;;7.46;100.00;100840.97;5051426;28;20020;-87
2024/01/22 00:06:34;;;;;;;5.93;4.35;;;;;;;7.46;100.00;100833.13;5052520;28;20028;-86
2024/01/22 00:09:00;;;;;;;9.25;4.90;;;;;;;7.48;100.00;100826.00;5031882;28;20489;-87
2024/01/22 00:11:25;;;;;;;7.13;4.60;;;;;;;7.47;100.00;100824.34;5048192;28;20116;-87
2024/01/22 00:13:50;;;;;;;7.57;4.25;;;;;;;7.50;100.00;100816.28;5033548;28;20047;-86
2024/01/22 00:16:16;;;;;;;6.38;4.05;;;;;;;7.50;100.00;100821.53;5051024;28;20024;-87
2024/01/22 00:18:41;;;;;;;6.65;4.13;;;;;;;7.49;100.00;100817.22;5048753;28;20033;-87
2024/01/22 00:21:06;;;;;;;6.78;4.00;;;;;;;7.52;100.00;100828.34;5049964;28;20662;-87
2024/01/22 00:23:32;;;;;;;8.05;4.35;;;;;;;7.53;100.00;100831.81;5049274;28;20516;-88
2024/01/22 00:25:57;;;;;;;7.13;4.30;;;;;;;7.55;100.00;100815.06;5049530;28;20111;-87
2024/01/22 00:28:23;;;;;;;9.00;4.40;;;;;;;7.58;100.00;100806.19;5048909;28;20135;-88
2024/01/22 00:30:48;;;;;;;6.20;4.00;;;;;;;7.62;100.00;100812.09;5027886;28;20025;-88
2024/01/22 00:33:13;;;;;;;6.47;4.00;;;;;;;7.63;100.00;100791.06;5040569;28;20021;-88
2024/01/22 00:35:39;;;;;;;9.90;4.85;;;;;;;7.63;100.00;100787.59;5048879;28;20047;-88
2024/01/22 00:38:04;;;;;;;7.70;3.97;;;;;;;7.68;100.00;100780.28;5049695;28;20519;-88
2024/01/22 00:40:29;;;;;;;7.53;3.92;;;;;;;7.69;100.00;100768.88;5050009;28;20024;-88
2024/01/22 00:42:55;;;;;;;6.05;3.78;;;;;;;7.69;100.00;100767.09;5048805;28;20032;-88
2024/01/22 00:45:20;;;;;;;9.20;4.20;;;;;;;7.77;100.00;100758.75;5051126;28;20060;-88
2024/01/22 00:47:46;;;;;;;7.78;3.67;;;;;;;7.78;100.00;100749.94;5049101;28;20056;-88
2024/01/22 00:50:12;;;;;;;7.97;3.83;;;;;;;7.79;100.00;100742.00;5044555;28;20142;-88
2024/01/22 00:52:37;;;;;;;6.38;3.60;;;;;;;7.82;100.00;100735.72;5050067;28;20116;-87
2024/01/22 00:55:03;;;;;;;6.55;3.65;;;;;;;7.82;100.00;100740.94;5028553;28;20041;-88
2024/01/22 00:57:28;;;;;;;7.40;3.80;;;;;;;7.89;100.00;100746.63;5031191;28;20021;-89
2024/01/22 00:59:54;;;;;;;6.45;3.40;;;;;;;7.90;100.00;100743.91;5027980;28;20060;-89
2024/01/22 01:02:19;;;;;;;7.03;3.53;;;;;;;7.90;100.00;100738.69;5050700;28;20445;-88
2024/01/22 01:04:44;;;;;;;11.52;3.20;;;;;;;7.96;100.00;100735.66;5048101;28;20082;-88
2024/01/22 01:07:10;;;;;;;6.00;3.33;;;;;;;8.00;100.00;100750.22;5049661;28;20035;-89
2024/01/22 01:09:35;;;;;;;6.53;3.67;;;;;;;8.04;100.00;100741.25;5050041;28;20039;-88
2024/01/22 01:12:00;;;;;;;6.22;3.22;;;;;;;8.05;100.00;100742.94;5049294;28;20028;-88
2024/01/22 01:14:26;;;;;;;4.90;2.95;;;;;;;8.07;100.00;100735.81;5050584;28;20033;-88
2024/01/22 01:16:51;;;;;;;6.38;3.75;;;;;;;8.07;100.00;100732.34;5050838;28;20036;-88
2024/01/22 01:19:17;;;;;;;5.45;3.22;;;;;;;8.11;100.00;100718.13;5049325;28;20051;-89
2024/01/22 01:21:42;;;;;;;7.32;3.40;;;;;;;8.14;100.00;100726.63;5048213;28;20029;-89
2024/01/22 01:24:08;;;;;;;3.70;2.47;;;;;;;8.16;100.00;100737.84;5048128;28;20064;-89
2024/01/22 01:26:40;;;;;;;5.93;3.40;;;;;;;8.21;100.00;100726.19;5045673;28;20044;-89
2024/01/22 01:29:05;;;;;;;5.22;3.00;;;;;;;8.23;100.00;100719.06;5030744;28;20021;-89
2024/01/22 01:31:31;;;;;;;6.00;3.38;;;;;;;8.23;100.00;100703.34;5049281;28;20492;-89
2024/01/22 01:33:56;;;;;;;5.15;3.00;;;;;;;8.27;100.00;100689.94;5038096;28;20061;-89
2024/01/22 01:36:21;;;;;;;4.68;2.60;;;;;;;8.29;100.00;100692.44;5030842;28;20032;-88
2024/01/22 01:38:50;;;;;;;4.40;2.63;;;;;;;8.33;100.00;100665.97;5046427;28;20370;-90
2024/01/22 01:41:16;;;;;;;3.35;2.55;;;;;;;8.35;100.00;100655.38;5048157;28;20025;-88
2024/01/22 01:43:41;;;;;;;4.55;2.70;;;;;;;8.38;100.00;100676.97;5050417;28;20363;-89
2024/01/22 01:46:07;;;;;;;4.25;2.60;;;;;;;8.42;100.00;100688.97;5048674;28;20087;-89
2024/01/22 01:48:33;;;;;;;4.68;2.63;;;;;;;8.45;100.00;100672.19;5030204;28;20029;-89
2024/01/22 01:51:00;;;;;;;5.15;2.60;;;;;;;8.44;100.00;100666.09;5047411;28;20072;-89
2024/01/22 01:53:26;;;;;;;5.55;2.70;;;;;;;8.46;100.00;100652.88;5049604;28;20384;-89
2024/01/22 01:55:53;;;;;;;4.32;2.40;;;;;;;8.48;100.00;100666.72;5048184;28;20500;-89
2024/01/22 01:58:20;;;;;;;3.25;2.60;;;;;;;8.52;100.00;100652.47;5050698;28;20086;-89
2024/01/22 02:00:51;;;;;;;4.93;2.63;;;;;;;8.51;100.00;100666.50;5049769;28;20074;-88
2024/01/22 02:03:17;;;;;;;5.07;2.63;;;;;;;8.48;100.00;100641.34;5030961;28;20032;-88
2024/01/22 02:05:43;;;;;;;2.88;2.17;;;;;;;8.53;100.00;100646.28;5048224;28;20033;-89
2024/01/22 02:08:08;;;;;;;3.38;2.40;;;;;;;8.51;100.00;100642.91;5046205;28;20025;-88
2024/01/22 02:10:33;;;;;;;4.25;2.40;;;;;;;8.53;100.00;100627.06;5046732;28;20245;-88
2024/01/22 02:13:01;;;;;;;3.40;2.25;;;;;;;8.54;100.00;100645.31;5044608;28;20028;-88
2024/01/22 02:15:27;;;;;;;3.67;2.40;;;;;;;8.56;100.00;100619.00;5048839;28;20456;-88
2024/01/22 02:17:52;;;;;;;4.10;2.40;;;;;;;8.59;100.00;100617.00;5046973;28;20057;-88
2024/01/22 02:20:17;;;;;;;4.80;2.38;;;;;;;8.59;100.00;100617.00;5041505;28;20029;-88
2024/01/22 02:22:43;;;;;;;4.40;2.53;;;;;;;8.58;100.00;100610.06;5027517;28;20042;-89
2024/01/22 02:25:08;;;;;;;3.70;2.42;;;;;;;8.57;100.00;100603.16;5040839;28;20112;-89
2024/01/22 02:27:33;;;;;;;3.45;2.45;;;;;;;8.60;100.00;100602.09;5046046;28;20029;-88
2024/01/22 02:29:59;;;;;;;4.15;2.25;;;;;;;8.61;100.00;100582.81;5046153;28;20025;-88
2024/01/22 02:32:24;;;;;;;3.95;2.10;;;;;;;8.58;100.00;100589.09;5047829;28;20029;-88
2024/01/22 02:34:50;;;;;;;5.53;2.60;;;;;;;8.61;100.00;100581.00;5048752;28;20029;-88
2024/01/22 02:37:15;;;;;;;4.72;2.58;;;;;;;8.64;100.00;100572.09;5048419;28;20020;-88
2024/01/22 02:39:41;;;;;;;4.15;2.70;;;;;;;8.62;100.00;100553.00;5048195;28;20091;-89
2024/01/22 02:42:07;;;;;;;4.72;2.63;;;;;;;8.63;100.00;100546.81;5047411;28;20028;-89
2024/01/22 02:44:35;;;;;;;3.42;2.25;;;;;;;8.64;100.00;100544.09;5048099;28;20044;-89
2024/01/22 02:47:01;;;;;;;4.03;2.40;;;;;;;8.65;100.00;100532.66;5043616;28;20032;-89
2024/01/22 02:49:27;;;;;;;3.88;2.28;;;;;;;8.65;100.00;100527.41;5047519;28;20033;-89
2024/01/22 02:51:52;;;;;;;3.15;2.22;;;;;;;8.64;100.00;100515.22;5046996;28;20039;-88
2024/01/22 02:54:18;;;;;;;2.42;2.15;;;;;;;8.63;100.00;100534.53;5046639;28;20033;-89
2024/01/22 02:56:43;;;;;;;3.60;2.20;;;;;;;8.66;100.00;100518.59;5028626;28;20021;-89
2024/01/22 02:59:09;;;;;;;4.30;2.10;;;;;;;8.70;100.00;100513.97;5046854;28;20448;-89
2024/01/22 03:01:34;;;;;;;3.70;2.10;;;;;;;8.65;100.00;100501.16;5048726;28;20673;-87
2024/01/22 03:04:00;;;;;;;4.57;2.40;;;;;;;8.64;100.00;100496.88;5047687;28;20029;-85
2024/01/22 03:06:26;;;;;;;2.75;2.08;;;;;;;8.65;100.00;100487.22;5035305;28;20021;-85
2024/01/22 03:08:51;;;;;;;3.80;2.10;;;;;;;8.62;100.00;100484.81;5051972;28;20110;-86
2024/01/22 03:11:17;;;;;;;3.10;1.95;;;;;;;8.61;100.00;100491.00;5051317;28;21996;-86
2024/01/22 03:13:43;;;;;;;4.82;2.53;;;;;;;8.59;100.00;100488.50;5034188;28;20099;-86
2024/01/22 03:16:09;;;;;;;3.38;2.10;;;;;;;8.59;100.00;100475.41;5035333;28;20028;-85
2024/01/22 03:18:34;;;;;;;4.00;2.05;;;;;;;8.60;100.00;100466.56;5049521;28;20025;-83
2024/01/22 03:21:04;;;;;;;4.18;2.10;;;;;;;8.63;100.00;100461.13;5050722;28;20481;-84
2024/01/22 03:23:29;;;;;;;3.47;2.20;;;;;;;8.62;100.00;100458.59;5051152;28;20447;-84
2024/01/22 03:25:55;;;;;;;3.28;2.28;;;;;;;8.59;100.00;100464.91;5050876;28;20025;-85
2024/01/22 03:28:21;;;;;;;3.30;2.00;;;;;;;8.60;100.00;100465.75;5045503;28;20025;-85
2024/01/22 03:30:46;;;;;;;4.70;2.25;;;;;;;8.63;100.00;100440.13;5024103;28;20028;-86
2024/01/22 03:33:12;;;;;;;1.95;1.83;;;;;;;8.63;100.00;100450.63;5028053;28;20033;-85
2024/01/22 03:35:38;;;;;;;2.40;1.80;;;;;;;8.64;100.00;100462.78;5047871;28;20031;-85
2024/01/22 03:38:03;;;;;;;4.25;2.10;;;;;;;8.63;100.00;100455.88;5051432;28;20021;-85
2024/01/22 03:40:29;;;;;;;3.53;1.80;;;;;;;8.63;100.00;100445.38;5052398;28;20021;-85
2024/01/22 03:42:54;;;;;;;2.95;1.88;;;;;;;8.71;100.00;100453.53;5050840;28;20056;-85
2024/01/22 03:45:19;;;;;;;4.85;1.50;;;;;;;8.77;100.00;100454.84;5052779;28;20017;-85
2024/01/22 03:47:45;;;;;;;3.67;1.80;;;;;;;8.77;100.00;100428.63;5039501;28;20029;-85
2024/01/22 03:50:11;;;;;;;1.70;1.60;;;;;;;8.79;100.00;100427.56;5047425;28;20362;-86
2024/01/22 03:52:36;;;;;;;2.97;1.50;;;;;;;8.81;100.00;100422.22;5052041;28;20035;-85
2024/01/22 03:55:02;;;;;;;2.10;1.50;;;;;;;8.84;100.00;100422.00;5051984;28;20481;-86
2024/01/22 03:57:27;;;;;;;1.98;1.30;;;;;;;8.87;100.00;100413.06;5052387;28;20045;-86
2024/01/22 03:59:53;;;;;;;2.45;1.50;;;;;;;8.97;100.00;100427.19;5051051;28;20093;-85
2024/01/22 04:02:18;;;;;;;2.65;1.58;;;;;;;8.98;100.00;100415.72;5034470;28;20029;-84
2024/01/22 04:04:43;;;;;;;3.67;1.63;;;;;;;8.99;100.00;100415.63;5051985;28;20075;-84
2024/01/22 04:07:09;;;;;;;2.80;1.48;;;;;;;8.99;100.00;100409.53;5047883;28;20737;-84
2024/01/22 04:09:36;;;;;;;2.38;1.70;;;;;;;9.03;100.00;100403.09;5024067;28;20044;-84
2024/01/22 04:12:03;;;;;;;2.58;1.50;;;;;;;9.00;100.00;100417.28;5047134;28;20033;-84
2024/01/22 04:14:29;;;;;;;3.63;1.40;;;;;;;9.00;100.00;100414.66;5044183;28;20062;-85
2024/01/22 04:16:54;;;;;;;3.97;1.75;;;;;;;9.04;100.00;100410.84;5049516;28;20055;-85
2024/01/22 04:19:20;;;;;;;3.28;1.80;;;;;;;9.04;100.00;100408.22;5050451;28;20531;-85
2024/01/22 04:21:46;;;;;;;2.67;1.55;;;;;;;9.07;100.00;100396.66;5031398;28;20029;-84
2024/01/22 04:24:12;;;;;;;2.45;1.50;;;;;;;9.08;100.00;100403.59;5048363;28;20083;-84
2024/01/22 04:26:38;;;;;;;4.10;1.52;;;;;;;9.11;100.00;100401.56;5042170;28;20032;-85
2024/01/22 04:29:04;;;;;;;2.97;1.50;;;;;;;9.16;100.00;100392.50;5048778;28;20491;-86
2024/01/22 04:31:30;;;;;;;3.28;1.20;;;;;;;9.18;100.00;100404.56;5049489;28;20029;-86
2024/01/22 04:33:55;;;;;;;3.08;1.35;;;;;;;9.23;100.00;100406.88;5031916;28;20151;-86
2024/01/22 04:36:21;;;;;;;3.55;1.40;;;;;;;9.26;100.00;100411.88;5050551;28;20024;-86
2024/01/22 04:38:46;;;;;;;4.20;1.60;;;;;;;9.28;100.00;100405.56;5050201;28;20040;-86
2024/01/22 04:41:12;;;;;;;3.28;1.25;;;;;;;9.35;100.00;100408.56;5049606;28;20037;-87
2024/01/22 04:43:37;;;;;;;3.10;1.10;;;;;;;9.39;100.00;100396.88;5047244;28;20568;-87
2024/01/22 04:46:03;;;;;;;2.55;1.30;;;;;;;9.45;100.00;100393.78;5030957;28;20033;-87
2024/01/22 04:48:31;;;;;;;2.60;1.20;;;;;;;9.47;100.00;100389.25;5031266;28;20033;-87
2024/01/22 04:50:57;;;;;;;1.73;1.10;;;;;;;9.49;100.00;100402.25;5034151;28;20082;-87
2024/01/22 04:53:22;;;;;;;2.17;1.30;;;;;;;9.53;100.00;100393.19;5050902;28;20029;-87
2024/01/22 04:55:48;;;;;;;2.08;1.20;;;;;;;9.59;100.00;100393.53;5029940;28;20032;-87
2024/01/22 04:58:13;;;;;;;3.22;1.30;;;;;;;9.62;100.00;100374.94;5030087;28;20016;-87
2024/01/22 05:00:38;;;;;;;2.25;1.08;;;;;;;9.71;100.00;100381.28;5048972;28;20103;-89
2024/01/22 05:03:04;;;;;;;3.70;1.33;;;;;;;9.74;100.00;100378.41;5048955;28;20047;-87
2024/01/22 05:05:33;;;;;;;2.85;1.20;;;;;;;9.80;100.00;100405.97;5049753;28;20370;-88
2024/01/22 05:07:59;;;;;;;6.10;1.50;;;;;;;9.84;100.00;100389.84;5049347;28;20028;-88
2024/01/22 05:10:24;;;;;;;2.05;1.33;;;;;;;9.85;100.00;100393.31;5050462;28;20020;-87
2024/01/22 05:12:50;;;;;;;2.95;1.33;;;;;;;9.85;100.00;100383.66;5047845;28;20058;-87
2024/01/22 05:15:15;;;;;;;2.63;1.20;;;;;;;9.86;100.00;100390.56;5049506;28;20518;-87
2024/01/22 05:17:41;;;;;;;2.63;1.15;;;;;;;9.88;100.00;100378.16;5030949;28;20029;-88
2024/01/22 05:20:08;;;;;;;3.33;1.15;;;;;;;9.91;100.00;100377.06;5044771;28;20381;-89
2024/01/22 05:22:34;;;;;;;2.20;1.40;;;;;;;9.93;100.00;100383.88;5025526;28;20116;-89
2024/01/22 05:24:59;;;;;;;2.90;1.20;;;;;;;9.97;100.00;100382.69;5048273;28;20025;-88
2024/01/22 05:27:24;;;;;;;2.30;1.02;;;;;;;9.95;100.00;100381.13;5049651;28;20091;-89
2024/01/22 05:29:50;;;;;;;4.22;1.30;;;;;;;9.96;100.00;100395.94;5050019;28;20052;-88
2024/01/22 05:32:15;;;;;;;2.90;1.25;;;;;;;9.98;100.00;100389.59;5020770;28;20033;-88
2024/01/22 05:34:41;;;;;;;3.35;1.30;;;;;;;10.00;100.00;100395.56;5051221;28;20082;-88
2024/01/22 05:37:06;;;;;;;2.42;1.20;;;;;;;9.99;100.00;100401.78;5041318;28;20579;-87
2024/01/22 05:39:32;;;;;;;6.65;1.85;;;;;;;10.01;100.00;100394.66;5050207;28;20083;-87
2024/01/22 05:41:57;;;;;;;3.75;1.20;;;;;;;9.97;100.00;100398.44;5050200;28;20079;-88
2024/01/22 05:44:24;;;;;;;4.63;1.60;;;;;;;9.95;100.00;100395.09;5050901;28;20025;-87
2024/01/22 05:46:49;;;;;;;3.95;1.23;;;;;;;9.92;100.00;100408.47;5043282;28;20470;-87
2024/01/22 05:49:15;;;;;;;2.80;1.25;;;;;;;9.93;100.00;100383.88;5037270;28;20029;-86
2024/01/22 05:51:40;;;;;;;2.67;1.25;;;;;;;9.91;100.00;100398.94;5046775;28;20081;-86
2024/01/22 05:54:06;;;;;;;3.42;1.27;;;;;;;9.87;100.00;100408.00;5049221;28;20025;-85
2024/01/22 05:56:32;;;;;;;4.28;1.30;;;;;;;9.86;100.00;100405.50;5032621;28;20029;-86
2024/01/22 05:59:01;;;;;;;2.65;1.20;;;;;;;9.83;100.00;100401.31;5050092;28;20095;-85
2024/01/22 06:01:31;;;;;;;3.97;1.30;;;;;;;9.79;100.00;100399.91;5031913;28;20469;-86
2024/01/22 06:03:57;;;;;;;4.68;1.45;;;;;;;9.80;100.00;100405.97;5048863;28;20032;-86
2024/01/22 06:06:22;;;;;;;2.80;1.52;;;;;;;9.78;100.00;100418.41;5049192;28;20035;-86
2024/01/22 06:08:49;;;;;;;2.70;1.38;;;;;;;9.77;100.00;100411.47;5049192;28;20033;-85
2024/01/22 06:11:17;;;;;;;4.13;1.63;;;;;;;9.74;100.00;100417.81;5045889;28;20029;-85
2024/01/22 06:13:42;;;;;;;3.13;1.35;;;;;;;9.74;100.00;100428.31;5029881;28;20079;-85
2024/01/22 06:16:09;;;;;;;2.67;1.50;;;;;;;9.71;100.00;100424.13;5048034;28;20040;-85
2024/01/22 06:18:36;;;;;;;2.10;1.48;;;;;;;9.72;100.00;100396.06;5047534;28;20055;-84
2024/01/22 06:21:02;;;;;;;3.35;1.50;;;;;;;9.71;100.00;100376.03;5047583;28;20028;-84
2024/01/22 06:23:27;;;;;;;2.28;1.40;;;;;;;9.72;100.00;100377.69;5048604;28;20499;-85
2024/01/22 06:25:59;;;;;;;2.53;1.50;;;;;;;9.70;100.00;100384.84;5047067;28;20038;-85
2024/01/22 06:28:25;;;;;;;2.75;1.50;;;;;;;9.69;100.00;100401.56;5047912;28;20016;-85
2024/01/22 06:30:54;;;;;;;4.40;1.55;;;;;;;9.69;100.00;100396.31;5026804;28;20024;-85
2024/01/22 06:33:23;;;;;;;2.35;1.30;;;;;;;9.68;100.00;100413.03;5029159;28;20031;-85
2024/01/22 06:35:58;;;;;;;2.83;1.40;;;;;;;9.66;100.00;100413.16;5032049;28;20067;-85
2024/01/22 06:38:25;;;;;;;3.30;1.50;;;;;;;9.69;100.00;100399.78;5027799;28;20026;-85
2024/01/22 06:40:50;;;;;;;3.67;1.60;;;;;;;9.68;100.00;100392.84;5029385;28;20121;-85
2024/01/22 06:43:19;;;;;;;1.80;1.30;;;;;;;9.66;100.00;100401.81;5045373;28;20116;-85
2024/01/22 06:45:44;;;;;;;2.85;1.10;;;;;;;9.71;100.00;100407.53;5047065;28;20025;-86
2024/01/22 06:48:11;;;;;;;3.47;1.10;;;;;;;9.69;100.00;100418.16;5045328;28;20079;-86
2024/01/22 06:50:37;;;;;;;2.22;1.00;;;;;;;9.72;100.00;100425.81;5045507;28;20580;-86
2024/01/22 06:53:03;;;;;;;2.55;1.10;;;;;;;9.72;100.00;100431.06;5045769;28;20043;-86
2024/01/22 06:55:32;;;;;;;2.00;1.02;;;;;;;9.70;100.00;100440.84;5048217;28;20473;-86
2024/01/22 06:57:57;;;;;;;1.52;1.00;;;;;;;9.73;100.00;100432.75;5026399;28;20071;-86
2024/01/22 07:00:48;;;;;;;2.00;1.00;;;;;;;9.75;100.00;100437.88;5030694;28;20021;-85
2024/01/22 07:03:14;;;;;;;1.73;1.10;;;;;;;9.71;100.00;100445.16;5033584;28;20030;-86
2024/01/22 07:05:40;;;;;;;1.42;1.10;;;;;;;9.70;100.00;100426.88;5048202;28;20031;-86
2024/01/22 07:08:08;;;;;;;2.40;1.30;;;;;;;9.69;100.00;100430.47;5047540;28;20025;-86
2024/01/22 07:10:37;;;;;;;1.52;1.15;;;;;;;9.69;100.00;100436.56;5044867;28;20420;-86
2024/01/22 07:13:03;;;;;;;2.38;1.00;;;;;;;9.68;100.00;100428.78;5046660;28;20029;-86
2024/01/22 07:15:28;;;;;;;2.78;1.50;;;;;;;9.70;100.00;100432.97;5031555;28;20024;-86
2024/01/22 07:17:54;;;;;;;3.55;1.60;;;;;;;9.70;100.00;100432.13;5047840;28;20377;-86
2024/01/22 07:20:22;;;;;;;4.35;1.42;;;;;;;9.73;100.00;100437.16;5048870;28;20067;-86
2024/01/22 07:22:50;;;;;;;3.38;1.80;;;;;;;9.73;100.00;100432.75;5043958;28;20166;-84
2024/01/22 07:25:18;;;;;;;2.63;1.50;;;;;;;9.74;100.00;100433.56;5046527;28;20047;-86
2024/01/22 07:27:44;;;;;;;4.53;1.98;;;;;;;9.77;100.00;100433.34;5046453;28;20052;-87
2024/01/22 07:30:12;;;;;;;7.03;1.70;;;;;;;9.81;100.00;100439.19;5024103;28;20025;-87
2024/01/22 07:32:40;;;;;;;4.30;1.80;;;;;;;9.80;100.00;100440.13;5038200;28;20021;-87
2024/01/22 07:35:07;;;;;;;7.65;2.00;;;;;;;9.79;100.00;100441.94;5048495;28;20028;-87
2024/01/22 07:37:36;;;;;;;9.25;2.30;;;;;;;9.81;100.00;100442.66;5048545;28;20021;-86
2024/01/22 07:40:04;;;;;;;5.50;2.20;;;;;;;9.80;100.00;100435.72;5023659;28;20090;-86
2024/01/22 07:42:31;;;;;;;5.13;2.03;;;;;;;9.82;100.00;100441.69;5048398;28;20370;-85
2024/01/22 07:44:57;;;;;;;6.85;1.98;;;;;;;9.83;100.00;100448.63;5045670;28;20029;-85
2024/01/22 07:47:22;;;;;;;8.85;2.17;;;;;;;9.82;100.00;100428.56;5051642;28;20025;-84
2024/01/22 07:49:48;;;;;;;6.63;2.08;;;;;;;9.83;100.00;100448.63;5069081;28;20159;-84
2024/01/22 07:52:13;;;;;;;6.22;2.22;;;;;;;9.84;100.00;100455.53;5065194;28;20021;-84
2024/01/22 07:54:38;;;;;;;7.82;2.38;;;;;;;9.85;100.00;100446.72;5051522;28;20068;-84
2024/01/22 07:57:04;;;;;;;9.15;2.50;;;;;;;9.84;100.00;100452.09;5050534;28;20029;-83
2024/01/22 07:59:32;;;;;;;11.20;2.60;;;;;;;9.85;100.00;100441.44;5051016;28;20013;-83
2024/01/22 08:01:57;;;;;;;11.80;2.53;;;;;;;9.83;100.00;100432.84;5049723;28;20024;-85
2024/01/22 08:04:26;;;;;;;10.38;2.88;;;;;;;9.84;100.00;100439.78;5055890;28;20480;-87
2024/01/22 08:06:51;;;;;;;11.35;3.05;;;;;;;9.83;100.00;100438.09;5066637;28;20021;-84
2024/01/22 08:09:20;;;;;;;12.32;3.15;;;;;;;9.82;100.00;100436.44;5034186;28;20506;-84
2024/01/22 08:11:47;;;;;;;21.25;4.43;;;;;;;9.86;100.00;100448.38;5052059;28;20029;-87
2024/01/22 08:14:13;;;;;;;17.90;4.35;;;;;;;9.89;100.00;100447.31;5032933;28;20021;-86
2024/01/22 08:16:38;;;;;;;18.95;4.18;;;;;;;9.87;100.00;100455.31;5051290;28;20029;-83
2024/01/22 08:19:04;;;;;;;21.75;4.43;;;;;;;9.89;100.00;100442.06;5050422;28;20117;-84
2024/01/22 08:21:29;;;;;;;25.20;4.45;;;;;;;9.90;100.00;100455.06;5051835;28;20032;-85
2024/01/22 08:23:55;;;;;;;29.52;5.05;;;;;;;9.89;100.00;100458.66;5051216;28;20036;-84
2024/01/22 08:26:20;;;;;;;23.60;5.15;;;;;;;9.87;100.00;100460.56;5052183;28;20150;-84
2024/01/22 08:28:46;;;;;;;21.95;5.00;;;;;;;9.84;100.00;100463.44;5050803;28;20025;-84
2024/01/22 08:31:11;;;;;;;22.10;5.45;;;;;;;9.83;100.00;100456.50;5048525;28;20028;-83
2024/01/22 08:33:37;;;;;;;17.45;3.95;;;;;;;9.80;100.00;100459.38;5051311;28;20284;-85
2024/01/22 08:36:02;;;;;;;17.35;3.70;;;;;;;9.80;100.00;100459.38;5049003;28;20167;-84
2024/01/22 08:38:27;;;;;;;21.38;4.43;;;;;;;9.80;100.00;100475.13;5033238;28;20591;-85
2024/01/22 08:40:53;;;;;;;13.00;3.78;;;;;;;9.80;100.00;100485.66;5050987;28;20540;-84
2024/01/22 08:43:18;;;;;;;16.15;3.65;;;;;;;9.78;100.00;100498.06;5051672;28;20028;-84
2024/01/22 08:45:43;;;;;;;18.63;4.10;;;;;;;9.77;100.00;100491.13;5048291;28;20110;-85
2024/01/22 08:48:09;;;;;;;19.67;4.47;;;;;;;9.73;100.00;100493.16;5047368;28;20884;-86
2024/01/22 08:50:34;;;;;;;20.52;3.97;;;;;;;9.76;100.00;100493.88;5032779;28;20053;-86
2024/01/22 08:53:00;;;;;;;16.60;4.32;;;;;;;9.72;100.00;100493.28;5050908;28;20041;-85
2024/01/22 08:55:25;;;;;;;18.48;3.97;;;;;;;9.74;100.00;100502.72;5025783;28;20405;-86
2024/01/22 08:57:53;;;;;;;19.17;4.38;;;;;;;9.73;100.00;100497.56;5034434;28;20104;-87
2024/01/22 09:00:20;;;;;;;17.73;4.35;;;;;;;9.73;100.00;100489.69;5050335;28;20035;-86
2024/01/22 09:02:47;;;;;;;17.05;4.65;;;;;;;9.69;100.00;100494.34;5045951;28;20029;-88
2024/01/22 09:05:18;;;;;;;13.57;3.72;;;;;;;9.69;100.00;100489.09;5028419;28;20028;-86
2024/01/22 09:07:48;;;;;;;16.80;3.97;;;;;;;9.68;100.00;100497.94;5032667;28;20025;-86
2024/01/22 09:10:14;;;;;;;19.95;4.45;;;;;;;9.64;100.00;100488.59;5024635;28;20440;-86
2024/01/22 09:12:39;;;;;;;18.08;4.50;;;;;;;9.65;100.00;100476.31;5031737;28;20025;-86
2024/01/22 09:15:10;;;;;;;22.02;4.35;;;;;;;9.63;100.00;100484.31;5029328;28;20385;-85
2024/01/22 09:17:36;;;;;;;18.92;4.80;;;;;;;9.60;100.00;100486.31;5029479;28;20045;-86
2024/01/22 09:20:04;;;;;;;25.23;4.85;;;;;;;9.58;100.00;100481.16;5031455;28;20037;-86
2024/01/22 09:22:29;;;;;;;21.63;4.95;;;;;;;9.56;100.00;100487.50;5045858;28;20401;-86
2024/01/22 09:24:55;;;;;;;18.67;4.53;;;;;;;9.58;100.00;100481.16;5043802;28;20055;-87
2024/01/22 09:27:20;;;;;;;16.65;4.15;;;;;;;9.59;100.00;100487.25;5049983;28;20482;-86
2024/01/22 09:29:46;;;;;;;18.55;4.38;;;;;;;9.58;100.00;100482.97;5024531;28;20397;-84
2024/01/22 09:32:12;;;;;;;20.60;4.43;;;;;;;9.59;100.00;100466.25;5031998;28;20037;-86
2024/01/22 09:34:38;;;;;;;19.42;4.30;;;;;;;9.60;100.00;100479.25;5013327;28;20040;-87
2024/01/22 09:37:05;;;;;;;14.40;3.70;;;;;;;9.61;100.00;100490.63;5043214;28;20128;-86
2024/01/22 09:39:30;;;;;;;14.30;3.60;;;;;;;9.61;100.00;100488.00;5047658;28;20048;-85
2024/01/22 09:42:00;;;;;;;17.05;3.92;;;;;;;9.61;100.00;100490.63;5049826;28;20095;-85
2024/01/22 09:44:26;;;;;;;16.55;3.90;;;;;;;9.59;100.00;100487.25;5049195;28;20078;-85
2024/01/22 09:46:53;;;;;;;16.55;3.83;;;;;;;9.62;100.00;100497.56;5050007;28;20032;-85
2024/01/22 09:49:18;;;;;;;12.30;3.40;;;;;;;9.64;100.00;100495.66;5031427;28;20025;-85
2024/01/22 09:51:45;;;;;;;14.60;3.58;;;;;;;9.65;100.00;100503.41;5049181;28;20136;-86
2024/01/22 09:54:12;;;;;;;12.63;3.25;;;;;;;9.69;100.00;100509.28;5048810;28;20036;-87
2024/01/22 09:56:39;;;;;;;11.15;2.92;;;;;;;9.70;100.00;100513.56;5020545;28;20059;-84
2024/01/22 09:59:18;;;;;;;12.65;2.90;;;;;;;9.68;100.00;100521.56;5031443;28;20021;-86
2024/01/22 10:01:51;;;;;;;11.35;2.55;;;;;;;9.68;100.00;100524.19;5027237;28;20029;-86
2024/01/22 10:04:20;;;;;;;11.15;2.97;;;;;;;9.71;100.00;100529.22;5041655;28;20029;-87
2024/01/22 10:06:49;;;;;;;11.45;3.33;;;;;;;9.72;100.00;100530.06;5039639;28;20030;-86
2024/01/22 10:09:15;;;;;;;13.60;2.95;;;;;;;9.74;100.00;100534.25;5031356;28;20036;-87
2024/01/22 10:11:49;;;;;;;10.23;2.88;;;;;;;9.77;100.00;100546.31;5048221;28;20021;-86
2024/01/22 10:14:15;;;;;;;10.70;2.17;;;;;;;9.79;100.00;100552.28;5044759;28;20035;-86
2024/01/22 10:16:40;;;;;;;10.15;2.55;;;;;;;9.81;100.00;100558.25;5032601;28;20029;-87
2024/01/22 10:19:08;;;;;;;9.50;2.53;;;;;;;9.81;100.00;100576.66;5048628;28;20021;-86
2024/01/22 10:21:35;;;;;;;10.95;2.80;;;;;;;9.77;100.00;100626.91;5045057;28;20056;-85
2024/01/22 10:24:11;;;;;;;16.08;3.67;;;;;;;9.65;100.00;100633.91;5051625;28;20020;-86
2024/01/22 10:26:36;;;;;;;17.58;4.28;;;;;;;9.35;100.00;100643.06;5069732;28;20437;-85
2024/01/22 10:29:20;;;;;;;17.25;3.95;;;;;;;9.21;100.00;100651.09;5063582;28;20115;-86
2024/01/22 10:31:59;;;;;;;20.15;4.47;;;;;;;9.00;100.00;100636.88;5032107;28;20036;-86
2024/01/22 10:34:30;;;;;;;22.08;4.90;;;;;;;8.83;100.00;100634.59;5049691;28;20392;-86
2024/01/22 10:37:13;;;;;;;21.88;4.68;;;;;;;8.76;100.00;100642.88;5031669;28;20036;-87
2024/01/22 10:39:43;;;;;;;23.95;5.30;;;;;;;8.61;100.00;100640.50;5029143;28;20389;-87
2024/01/22 10:42:11;;;;;;;29.48;6.05;;;;;;;8.56;100.00;100659.16;5027444;28;20040;-88
2024/01/22 10:44:38;;;;;;;22.65;5.45;;;;;;;8.52;100.00;100641.13;5041008;28;20040;-88
2024/01/22 10:47:09;;;;;;;26.38;5.60;;;;;;;8.43;100.00;100643.44;5027682;28;20030;-89
2024/01/22 10:49:41;;;;;;;27.52;6.25;;;;;;;8.40;100.00;100645.41;5044696;28;20049;-89
2024/01/22 10:52:16;;;;;;;27.10;6.60;;;;;;;8.39;100.00;100641.94;5041614;28;20028;-88
2024/01/22 10:54:45;;;;;;;29.98;6.80;;;;;;;8.40;100.00;100642.78;5037221;28;20040;-89
2024/01/22 10:57:19;;;;;;;33.25;6.38;;;;;;;8.38;100.00;100645.50;5045080;28;20028;-89
2024/01/22 10:59:58;;;;;;;31.27;6.53;;;;;;;8.40;100.00;100637.53;5048706;28;20029;-89
2024/01/22 11:02:30;;;;;;;38.47;7.90;;;;;;;8.42;100.00;100654.03;5036385;28;20150;-89
2024/01/22 11:05:11;;;;;;;32.47;7.38;;;;;;;8.43;100.00;100640.00;5036572;28;20078;-89
2024/01/22 11:07:39;;;;;;;35.63;7.50;;;;;;;8.45;100.00;100651.22;5048206;28;20025;-89
2024/01/22 11:10:09;;;;;;;36.00;7.80;;;;;;;8.47;100.00;100651.94;5052217;28;20044;-89
2024/01/22 11:12:54;;;;;;;35.20;7.80;;;;;;;8.48;100.00;100656.25;5049628;28;20103;-89
2024/01/22 11:15:20;;;;;;;31.70;7.47;;;;;;;8.48;100.00;100656.25;5048311;28;20106;-89
2024/01/22 11:17:47;;;;;;;34.00;7.57;;;;;;;8.50;100.00;100659.59;5047173;28;20025;-86
2024/01/22 11:20:32;;;;;;;37.72;8.30;;;;;;;8.50;100.00;100677.09;5048097;28;20049;-87